CheckWX is a tool to help pilots better visualize weather data.  It is not intended as a substitute for an official pre-flight weather briefing.

08:24:59 UTC

KBCE METAR
Bryce Canyon Airport
Bryce Canyon, Utah, USA
Current

32 mins ago

KBCE 220753Z AUTO 14008KT 10SM BKN025 M03/M04 A3002 RMK AO2 SLP135 T10281044 $
Observed
Mar-22 @ 07:53 UTC
Wind
  • 140° at 8 KTS
Visibility
10 SM
Flight Rules
MVFR
Cloud Levels
  • Broken at 2,500' AGL
Temperature
-3°C / 27°F
Dewpoint
-4°C / 25°F
Humidity
93%
Altimeter
30.02" Hg
Pressure
1013.5 hPa
Previous

41 mins ago

KBCE 220744Z AUTO 14007KT 10SM BKN025 M03/M04 A3002 RMK AO2 T10331044 $
Observed
Mar-22 @ 07:44 UTC
Wind
  • 140° at 7 KTS
Visibility
10 SM
Flight Rules
MVFR
Cloud Levels
  • Broken at 2,500' AGL
Temperature
-3°C / 27°F
Dewpoint
-4°C / 25°F
Humidity
93%
Altimeter
30.02" Hg
Pressure
1016.62 hPa
Previous

2 hours ago

KBCE 220653Z AUTO 16007KT 10SM CLR M05/M08 A3002 RMK AO2 SLP147 T10501078 400221050 $
Observed
Mar-22 @ 06:53 UTC
Wind
  • 160° at 7 KTS
Visibility
10 SM
Flight Rules
VFR
Cloud Levels
  • Clear skies
Temperature
-5°C / 23°F
Dewpoint
-8°C / 18°F
Humidity
80%
Altimeter
30.02" Hg
Pressure
1014.7 hPa